Time;durP1;ratioP1;P1;durP2;ratioP2;P2;SDS_P1;SDS_P2;PMS_P1;PMS_P2;Temp;Humidity;BMP_temperature;BMP_pressure;BME280_temperature;BME280_humidity;BME280_pressure;Samples;Min_cycle;Max_cycle;Signal;HPM_P1;HPM_P2
2022/07/04 00:02:19;;;;;;;1.60;1.50;;;25.00;47.70;26.10;101189.00;;;;5066190;28;20178;-43
2022/07/04 00:04:45;;;;;;;2.85;1.70;;;25.00;47.60;26.10;101187.00;;;;5066095;28;20235;-45
2022/07/04 00:07:11;;;;;;;1.83;1.60;;;25.00;47.60;26.10;101184.00;;;;5066117;28;20669;-44
2022/07/04 00:09:37;;;;;;;1.67;1.52;;;25.00;47.60;26.00;101185.00;;;;5081484;28;20177;-43
2022/07/04 00:12:03;;;;;;;2.92;1.60;;;25.00;47.70;26.00;101182.00;;;;5066222;28;20211;-44
2022/07/04 00:14:29;;;;;;;1.50;1.40;;;24.90;47.60;26.00;101186.00;;;;5066114;28;20176;-44
2022/07/04 00:16:54;;;;;;;2.05;1.50;;;24.90;47.60;26.00;101187.00;;;;5065929;28;20189;-43
2022/07/04 00:19:20;;;;;;;1.83;1.58;;;24.90;47.60;26.00;101194.00;;;;5065516;28;20206;-44
2022/07/04 00:21:46;;;;;;;1.67;1.40;;;24.90;47.60;25.90;101192.00;;;;5065780;28;20201;-43
2022/07/04 00:24:12;;;;;;;1.80;1.52;;;24.80;47.50;25.90;101195.00;;;;5065896;28;20215;-43
2022/07/04 00:26:37;;;;;;;2.22;1.52;;;24.90;47.60;25.90;101193.00;;;;5065737;28;20797;-44
2022/07/04 00:29:03;;;;;;;1.77;1.58;;;24.80;47.40;25.90;101184.00;;;;5067043;28;20887;-43
2022/07/04 00:31:29;;;;;;;1.60;1.50;;;24.80;47.40;25.90;101186.00;;;;5069925;28;20165;-44
2022/07/04 00:33:54;;;;;;;1.50;1.40;;;24.80;47.50;25.80;101189.00;;;;5069839;28;20180;-43
2022/07/04 00:36:20;;;;;;;1.95;1.70;;;24.70;47.40;25.80;101189.00;;;;5069422;28;20201;-43
2022/07/04 00:38:46;;;;;;;2.03;1.52;;;24.70;47.40;25.80;101187.00;;;;5069501;28;20672;-44
2022/07/04 00:41:12;;;;;;;2.13;1.70;;;24.70;47.40;25.80;101177.00;;;;5069915;28;20174;-43
2022/07/04 00:43:38;;;;;;;1.70;1.60;;;24.70;47.50;25.80;101182.00;;;;5068390;28;20649;-45
2022/07/04 00:46:05;;;;;;;1.95;1.65;;;24.70;47.60;25.70;101180.00;;;;5069161;28;20288;-46
2022/07/04 00:48:32;;;;;;;1.60;1.50;;;24.70;47.50;25.70;101182.00;;;;5069585;28;20259;-43
2022/07/04 00:50:57;;;;;;;2.53;1.65;;;24.70;47.40;25.70;101182.00;;;;5069097;28;20699;-43
2022/07/04 00:53:23;;;;;;;2.28;1.80;;;24.60;47.70;25.70;101176.00;;;;5069445;28;20170;-44
2022/07/04 00:55:52;;;;;;;1.98;1.65;;;24.60;47.90;25.70;101174.00;;;;5069468;28;20189;-43
2022/07/04 00:58:22;;;;;;;1.88;1.70;;;24.60;48.00;25.60;101167.00;;;;5069044;28;20269;-43
2022/07/04 01:00:48;;;;;;;1.80;1.58;;;24.60;47.90;25.60;101161.00;;;;5069216;28;20205;-44
2022/07/04 01:03:13;;;;;;;1.65;1.42;;;24.60;48.10;25.60;101165.00;;;;5069013;28;20258;-43
2022/07/04 01:05:39;;;;;;;1.80;1.52;;;24.60;48.00;25.60;101166.00;;;;5069142;28;20235;-44
2022/07/04 01:08:05;;;;;;;2.92;1.88;;;24.50;47.90;25.60;101165.00;;;;5067839;28;20176;-44
2022/07/04 01:10:31;;;;;;;1.83;1.63;;;24.50;47.80;25.50;101165.00;;;;5069175;28;20162;-44
2022/07/04 01:12:56;;;;;;;1.77;1.60;;;24.50;48.50;25.50;101164.00;;;;5068859;28;20173;-42
2022/07/04 01:15:22;;;;;;;1.97;1.70;;;24.40;47.60;25.50;101165.00;;;;5069075;28;20287;-44
2022/07/04 01:17:49;;;;;;;2.33;1.80;;;24.40;47.60;25.50;101168.00;;;;5068866;28;20626;-43
2022/07/04 01:20:15;;;;;;;2.43;1.60;;;24.40;47.80;25.40;101163.00;;;;5069028;28;20178;-43
2022/07/04 01:22:41;;;;;;;2.35;1.67;;;24.40;47.90;25.40;101178.00;;;;5069125;28;20354;-43
2022/07/04 01:25:08;;;;;;;1.87;1.73;;;24.40;48.00;25.40;101169.00;;;;5068802;28;20714;-44
2022/07/04 01:27:34;;;;;;;2.50;1.73;;;24.40;47.90;25.40;101161.00;;;;5068680;28;20231;-43
2022/07/04 01:29:59;;;;;;;4.13;1.97;;;24.40;47.90;25.40;101164.00;;;;5068769;28;20552;-43
2022/07/04 01:32:25;;;;;;;2.00;1.80;;;24.30;47.80;25.40;101169.00;;;;5068746;28;20204;-43
2022/07/04 01:34:51;;;;;;;1.83;1.60;;;24.40;48.00;25.30;101164.00;;;;5068680;28;20170;-45
2022/07/04 01:37:17;;;;;;;3.10;1.70;;;24.30;48.00;25.30;101166.00;;;;5068300;28;20197;-44
2022/07/04 01:39:43;;;;;;;1.80;1.70;;;24.30;48.00;25.30;101170.00;;;;5070606;28;20177;-44
2022/07/04 01:42:08;;;;;;;1.93;1.70;;;24.30;48.10;25.30;101171.00;;;;5067899;28;20646;-44
2022/07/04 01:44:34;;;;;;;1.83;1.70;;;24.20;48.00;25.30;101172.00;;;;5068707;28;20244;-43
2022/07/04 01:47:00;;;;;;;2.70;1.90;;;24.30;48.20;25.20;101168.00;;;;5068679;28;20205;-43
2022/07/04 01:49:26;;;;;;;2.17;1.80;;;24.20;48.20;25.20;101178.00;;;;5067155;28;20269;-43
2022/07/04 01:51:52;;;;;;;1.90;1.67;;;24.20;48.20;25.20;101172.00;;;;5069078;28;20230;-44
2022/07/04 01:54:18;;;;;;;1.70;1.60;;;24.10;48.30;25.20;101172.00;;;;5068425;28;20256;-44
2022/07/04 01:56:44;;;;;;;2.40;1.67;;;24.10;48.30;25.20;101167.00;;;;5068488;28;20198;-44
2022/07/04 01:59:10;;;;;;;1.70;1.60;;;24.10;48.30;25.10;101165.00;;;;5068193;28;20178;-44
2022/07/04 02:01:37;;;;;;;2.47;1.70;;;24.10;48.30;25.10;101170.00;;;;5068375;28;20208;-44
2022/07/04 02:04:03;;;;;;;2.10;1.53;;;24.10;48.40;24.90;101179.00;;;;5068683;28;20205;-44
2022/07/04 02:06:29;;;;;;;2.00;1.70;;;24.10;48.40;25.10;101190.00;;;;5068120;28;20209;-44
2022/07/04 02:14:23;;;;;;;2.03;1.60;;;24.00;48.50;25.00;101202.00;;;;5067966;28;20212;-44
2022/07/04 02:16:49;;;;;;;2.07;1.63;;;24.00;48.60;25.00;101189.00;;;;5069116;28;20227;-43
2022/07/04 02:19:15;;;;;;;1.97;1.80;;;24.00;48.60;24.90;101200.00;;;;5067484;28;20177;-44
2022/07/04 02:21:41;;;;;;;1.60;1.50;;;24.00;48.50;24.90;101202.00;;;;5067764;28;20689;-43
2022/07/04 02:24:07;;;;;;;1.80;1.70;;;23.90;48.50;24.90;101193.00;;;;5067561;28;20239;-42
2022/07/04 02:26:32;;;;;;;2.57;1.83;;;23.80;48.50;24.90;101202.00;;;;5067535;28;20205;-44
2022/07/04 02:28:58;;;;;;;2.00;1.80;;;23.80;48.50;24.90;101197.00;;;;5067393;28;20165;-45
2022/07/04 02:31:24;;;;;;;3.70;1.70;;;23.80;48.60;24.90;101207.00;;;;5067404;28;20170;-44
2022/07/04 02:33:50;;;;;;;1.70;1.60;;;23.80;48.70;24.80;101208.00;;;;5067298;28;20173;-44
2022/07/04 02:36:15;;;;;;;2.57;1.70;;;23.80;48.60;24.80;101201.00;;;;5067297;28;20201;-44
2022/07/04 02:38:41;;;;;;;1.77;1.60;;;23.80;48.70;24.80;101203.00;;;;5067418;28;20174;-43
2022/07/04 02:41:07;;;;;;;2.23;1.60;;;23.80;48.40;24.80;101208.00;;;;5067396;28;20185;-42
2022/07/04 02:43:32;;;;;;;1.63;1.53;;;23.80;48.40;24.80;101202.00;;;;5067423;28;20174;-43
2022/07/04 02:45:58;;;;;;;1.80;1.63;;;23.80;48.30;24.70;101206.00;;;;5067316;28;20227;-43
2022/07/04 02:48:24;;;;;;;1.93;1.70;;;23.80;48.40;24.70;101205.00;;;;5066926;28;20852;-43
2022/07/04 02:50:50;;;;;;;1.70;1.50;;;23.80;48.40;24.70;101202.00;;;;5067330;28;20698;-43
2022/07/04 02:53:15;;;;;;;2.30;1.83;;;23.70;48.20;24.70;101201.00;;;;5066582;28;20571;-43
2022/07/04 02:55:41;;;;;;;2.33;1.77;;;23.70;48.30;24.70;101218.00;;;;5067048;28;20597;-43
2022/07/04 02:58:07;;;;;;;1.80;1.70;;;23.60;48.30;24.60;101213.00;;;;5066946;28;20554;-44
2022/07/04 03:00:32;;;;;;;1.97;1.80;;;23.60;48.20;24.60;101210.00;;;;5067387;28;20170;-44
2022/07/04 03:02:58;;;;;;;1.83;1.60;;;23.60;48.20;24.60;101217.00;;;;5067173;28;20213;-44
2022/07/04 03:05:24;;;;;;;1.80;1.70;;;23.60;48.30;24.60;101218.00;;;;5066809;28;20201;-43
2022/07/04 03:07:50;;;;;;;1.80;1.70;;;23.60;48.30;24.50;101229.00;;;;5066400;28;20180;-47
2022/07/04 03:10:15;;;;;;;2.30;1.73;;;23.60;48.40;24.50;101233.00;;;;5067399;28;20174;-46
2022/07/04 03:12:41;;;;;;;4.17;1.80;;;23.60;48.50;24.50;101234.00;;;;5070053;28;20193;-42
2022/07/04 03:15:07;;;;;;;1.73;1.63;;;23.60;48.50;24.50;101233.00;;;;5085850;28;20173;-44
2022/07/04 03:17:33;;;;;;;2.30;1.50;;;23.50;48.50;24.50;101240.00;;;;5081931;28;20180;-43
2022/07/04 03:19:59;;;;;;;2.10;1.70;;;23.50;48.60;24.40;101246.00;;;;5073312;28;20154;-43
2022/07/04 03:22:26;;;;;;;1.83;1.50;;;23.50;48.60;24.40;101247.00;;;;5066732;28;20234;-43
2022/07/04 03:24:52;;;;;;;1.83;1.70;;;23.40;48.60;24.40;101257.00;;;;5066478;28;20181;-42
2022/07/04 03:27:17;;;;;;;2.73;1.83;;;23.40;48.60;24.40;101254.00;;;;5066145;28;20185;-45
2022/07/04 03:29:43;;;;;;;2.80;1.80;;;23.40;48.70;24.40;101263.00;;;;5066517;28;20219;-43
2022/07/04 03:32:09;;;;;;;2.00;1.80;;;23.40;48.80;24.30;101261.00;;;;5066323;28;20163;-44
2022/07/04 03:34:35;;;;;;;1.90;1.60;;;23.40;48.80;24.30;101253.00;;;;5066279;28;20197;-43
2022/07/04 03:37:01;;;;;;;2.93;1.90;;;23.30;48.80;24.30;101259.00;;;;5076649;28;20203;-44
2022/07/04 03:39:26;;;;;;;3.27;2.17;;;23.30;48.90;24.30;101259.00;;;;5095645;28;20177;-44
2022/07/04 03:41:53;;;;;;;6.73;6.03;;;23.20;48.80;24.20;101256.00;;;;5085880;28;20203;-43
2022/07/04 03:44:18;;;;;;;5.30;4.67;;;23.20;48.80;24.20;101263.00;;;;5085084;28;20177;-43
2022/07/04 03:46:44;;;;;;;3.80;3.40;;;23.20;48.80;24.20;101272.00;;;;5085859;28;20912;-44
2022/07/04 03:49:10;;;;;;;4.40;3.00;;;23.20;48.80;24.20;101286.00;;;;5085450;28;20164;-43
2022/07/04 03:51:35;;;;;;;5.93;2.80;;;23.20;48.70;24.20;101271.00;;;;5085442;28;20519;-44
2022/07/04 03:54:01;;;;;;;4.40;2.60;;;23.20;48.90;24.10;101281.00;;;;5085395;28;20656;-43
2022/07/04 03:56:27;;;;;;;3.00;2.17;;;23.20;48.90;24.10;101272.00;;;;5085695;28;20207;-43
2022/07/04 03:58:53;;;;;;;2.73;2.17;;;23.10;48.90;24.10;101269.00;;;;5085649;28;20267;-43
2022/07/04 04:01:19;;;;;;;3.20;2.30;;;23.10;48.90;24.10;101274.00;;;;5085789;28;20180;-43
2022/07/04 04:06:29;;;;;;;2.60;1.80;;;23.10;49.00;24.00;101265.00;;;;5085783;28;20641;-43
2022/07/04 04:08:55;;;;;;;2.50;1.90;;;23.00;49.10;24.00;101269.00;;;;5085801;28;20173;-43
2022/07/04 04:11:21;;;;;;;3.53;2.10;;;23.00;49.10;24.00;101269.00;;;;5085540;28;20377;-44
2022/07/04 04:13:46;;;;;;;2.70;1.90;;;23.00;49.20;24.00;101284.00;;;;5085633;28;20181;-43
2022/07/04 04:16:12;;;;;;;2.63;1.80;;;23.00;49.20;24.00;101279.00;;;;5086567;28;20464;-44
2022/07/04 04:18:38;;;;;;;2.13;1.73;;;23.00;49.10;23.90;101274.00;;;;5092102;28;20190;-43
2022/07/04 04:21:04;;;;;;;2.37;1.80;;;23.00;49.20;23.90;101264.00;;;;5093210;28;20180;-43
2022/07/04 04:23:30;;;;;;;2.10;1.90;;;23.00;49.20;23.90;101263.00;;;;5087648;28;20568;-43
2022/07/04 04:25:57;;;;;;;2.20;1.93;;;22.90;49.10;23.90;101269.00;;;;5086345;28;20316;-44
2022/07/04 04:28:23;;;;;;;1.93;1.77;;;22.90;49.40;23.80;101257.00;;;;5085946;28;20252;-43
2022/07/04 04:30:50;;;;;;;2.40;1.80;;;22.80;49.40;23.80;101260.00;;;;5085767;28;20176;-43
2022/07/04 04:33:15;;;;;;;2.80;1.77;;;22.90;49.50;23.80;101261.00;;;;5085391;28;20192;-44
2022/07/04 04:35:41;;;;;;;2.73;1.90;;;22.90;49.50;23.80;101263.00;;;;5085962;28;20205;-43
2022/07/04 04:38:07;;;;;;;3.00;1.70;;;22.80;49.50;23.80;101271.00;;;;5085559;28;20173;-43
2022/07/04 04:40:33;;;;;;;2.93;1.80;;;22.80;49.60;23.80;101270.00;;;;5085683;28;20231;-42
2022/07/04 04:42:58;;;;;;;2.40;2.00;;;22.80;49.60;23.80;101211.00;;;;5085232;28;20234;-43
2022/07/04 04:45:24;;;;;;;2.30;1.80;;;22.80;49.50;23.70;101282.00;;;;5085201;28;20208;-43
2022/07/04 04:47:51;;;;;;;2.03;1.70;;;22.80;49.70;23.70;101275.00;;;;5085317;28;20165;-44
2022/07/04 04:50:17;;;;;;;2.10;1.70;;;22.80;49.70;23.70;101283.00;;;;5085601;28;20169;-44
2022/07/04 04:52:43;;;;;;;2.67;2.07;;;22.80;50.30;23.70;101279.00;;;;5085339;28;20172;-43
2022/07/04 04:55:08;;;;;;;2.00;1.90;;;22.80;49.80;23.70;101274.00;;;;5085022;28;20722;-44
2022/07/04 04:57:34;;;;;;;3.40;1.90;;;22.70;49.70;23.70;101282.00;;;;5085501;28;20176;-44
2022/07/04 05:00:00;;;;;;;4.03;1.90;;;22.70;49.80;23.70;101285.00;;;;5085482;28;20169;-44
2022/07/04 05:02:26;;;;;;;1.80;1.70;;;22.70;49.90;23.60;101275.00;;;;5084801;28;20535;-44
2022/07/04 05:04:53;;;;;;;1.70;1.60;;;22.70;49.80;23.60;101281.00;;;;5085272;28;20157;-44
2022/07/04 05:07:19;;;;;;;2.00;1.80;;;22.70;49.80;23.60;101281.00;;;;5085065;28;20196;-43
2022/07/04 05:09:45;;;;;;;2.03;1.83;;;22.70;49.80;23.60;101282.00;;;;5085449;28;20607;-43
2022/07/04 05:12:11;;;;;;;2.53;2.00;;;22.70;49.80;23.60;101288.00;;;;5083957;28;20161;-44
2022/07/04 05:14:36;;;;;;;6.07;2.30;;;22.70;50.10;23.60;101282.00;;;;5084846;28;20165;-43
2022/07/04 05:17:02;;;;;;;2.37;2.10;;;22.70;50.00;23.60;101274.00;;;;5088320;28;20184;-43
2022/07/04 05:19:29;;;;;;;2.43;2.10;;;22.70;50.10;23.60;101285.00;;;;5088722;28;20173;-43
2022/07/04 05:21:54;;;;;;;2.10;1.90;;;22.60;50.00;23.60;101283.00;;;;5089212;28;20546;-44
2022/07/04 05:24:20;;;;;;;2.67;1.97;;;22.60;50.10;23.50;101285.00;;;;5088516;28;20185;-43
2022/07/04 05:26:46;;;;;;;2.20;1.80;;;22.60;50.30;23.50;101291.00;;;;5090674;28;20257;-44
2022/07/04 05:29:12;;;;;;;2.43;2.03;;;22.60;50.10;23.50;101275.00;;;;5105307;28;20168;-44
2022/07/04 05:31:38;;;;;;;2.10;1.90;;;22.60;50.20;23.50;101287.00;;;;5088767;28;20621;-43
2022/07/04 05:34:04;;;;;;;2.87;2.20;;;22.60;50.20;23.50;101277.00;;;;5088516;28;20293;-43
2022/07/04 05:36:30;;;;;;;2.33;2.07;;;22.60;50.50;23.50;101287.00;;;;5088774;28;20234;-43
2022/07/04 05:38:57;;;;;;;2.70;2.10;;;22.60;50.50;23.40;101291.00;;;;5088560;28;20193;-44
2022/07/04 05:41:23;;;;;;;3.13;2.47;;;22.60;50.50;23.40;101298.00;;;;5088850;28;20220;-43
2022/07/04 05:43:49;;;;;;;3.13;2.27;;;22.50;50.70;23.40;101289.00;;;;5087105;28;20168;-44
2022/07/04 05:46:14;;;;;;;3.37;2.33;;;22.60;50.70;23.40;101295.00;;;;5088658;28;20201;-44
2022/07/04 05:48:40;;;;;;;3.33;2.10;;;22.60;50.60;23.40;101289.00;;;;5089068;28;20169;-43
2022/07/04 05:51:06;;;;;;;2.33;2.00;;;22.50;50.50;23.30;101288.00;;;;5088934;28;20162;-44
2022/07/04 05:53:31;;;;;;;2.60;2.10;;;22.60;50.80;23.30;101294.00;;;;5088972;28;20176;-44
2022/07/04 05:55:57;;;;;;;3.77;2.30;;;22.50;50.80;23.30;101291.00;;;;5088282;28;20207;-44
2022/07/04 05:58:24;;;;;;;3.17;2.20;;;22.50;50.80;23.30;101286.00;;;;5088719;28;20177;-43
2022/07/04 06:00:49;;;;;;;2.87;2.40;;;22.50;50.90;23.30;101288.00;;;;5088682;28;20676;-43
2022/07/04 06:03:15;;;;;;;3.00;2.17;;;22.50;51.10;23.30;101284.00;;;;5088354;28;20169;-43
2022/07/04 06:05:41;;;;;;;3.40;2.40;;;22.50;51.30;23.30;101291.00;;;;5088393;28;20266;-42
2022/07/04 06:08:06;;;;;;;3.80;2.20;;;22.50;51.30;23.30;101292.00;;;;5088499;28;20194;-43
2022/07/04 06:10:33;;;;;;;2.53;2.03;;;22.50;51.20;23.30;101287.00;;;;5088843;28;20188;-43
2022/07/04 06:12:59;;;;;;;3.93;2.90;;;22.50;51.20;23.30;101286.00;;;;5086239;28;20570;-43
2022/07/04 06:15:24;;;;;;;4.23;2.80;;;22.50;52.30;23.30;101280.00;;;;5067743;28;20272;-43
2022/07/04 06:17:50;;;;;;;4.63;2.70;;;22.40;52.20;23.30;101276.00;;;;5068567;28;20548;-43
2022/07/04 06:20:16;;;;;;;3.17;2.40;;;22.40;52.20;23.30;101280.00;;;;5077895;28;20566;-43
2022/07/04 06:22:47;;;;;;;3.40;2.40;;;22.40;52.20;23.30;101286.00;;;;5089443;28;20222;-44
2022/07/04 06:25:17;;;;;;;5.97;3.00;;;22.40;52.20;23.30;101289.00;;;;5086508;28;20173;-43
2022/07/04 06:27:43;;;;;;;2.70;2.30;;;22.40;52.20;23.30;101284.00;;;;5087117;28;20169;-43
2022/07/04 06:30:09;;;;;;;3.10;2.67;;;22.40;52.20;23.30;101296.00;;;;5087610;28;20204;-43
2022/07/04 06:32:48;;;;;;;3.57;2.43;;;22.40;52.40;23.20;101290.00;;;;5087949;28;20409;-44
2022/07/04 06:38:02;;;;;;;3.63;2.70;;;22.40;53.10;23.20;101274.00;;;;5110647;28;20168;-44
2022/07/04 06:40:28;;;;;;;5.07;2.97;;;22.30;53.30;23.20;101282.00;;;;5103776;28;20592;-44
2022/07/04 06:42:54;;;;;;;2.97;2.53;;;22.30;53.20;23.20;101288.00;;;;5087200;28;20176;-44
2022/07/04 06:45:19;;;;;;;3.30;2.10;;;22.40;53.00;23.20;101290.00;;;;5087452;28;20209;-43
2022/07/04 06:47:45;;;;;;;2.87;2.57;;;22.40;52.90;23.10;101286.00;;;;5087239;28;20183;-43
2022/07/04 06:50:11;;;;;;;4.67;2.80;;;22.40;53.00;23.10;101283.00;;;;5087306;28;20165;-43
2022/07/04 06:52:37;;;;;;;5.43;2.90;;;22.30;53.20;23.10;101296.00;;;;5079513;28;20583;-43
2022/07/04 06:55:04;;;;;;;4.33;2.70;;;22.40;53.50;23.10;101290.00;;;;5066484;28;20201;-43
2022/07/04 06:57:30;;;;;;;4.40;2.70;;;22.40;53.20;23.10;101283.00;;;;5066673;28;20197;-43
2022/07/04 06:59:56;;;;;;;4.70;2.80;;;22.40;53.20;23.10;101285.00;;;;5066796;28;20236;-43
2022/07/04 07:02:22;;;;;;;4.57;2.90;;;22.30;53.40;23.10;101285.00;;;;5066976;28;20262;-43
2022/07/04 07:04:47;;;;;;;6.60;3.07;;;22.20;53.50;23.10;101271.00;;;;5066742;28;20249;-43
2022/07/04 07:07:13;;;;;;;4.13;2.57;;;22.30;53.50;23.10;101289.00;;;;5066393;28;20288;-43
2022/07/04 07:09:39;;;;;;;5.10;2.77;;;22.30;53.40;23.10;101283.00;;;;5066757;28;20245;-43
2022/07/04 07:12:05;;;;;;;4.60;2.73;;;22.30;53.60;23.10;101282.00;;;;5066684;28;20795;-42
2022/07/04 07:14:30;;;;;;;3.77;2.50;;;22.30;54.00;23.10;101282.00;;;;5065935;28;20787;-43
2022/07/04 07:16:56;;;;;;;3.53;2.50;;;22.30;53.90;23.00;101289.00;;;;5067122;28;20258;-43
2022/07/04 07:19:22;;;;;;;4.23;2.80;;;22.30;53.50;23.00;101292.00;;;;5066536;28;20166;-43
2022/07/04 07:21:48;;;;;;;3.50;2.47;;;22.30;53.90;23.00;101291.00;;;;5072884;28;20173;-43
2022/07/04 07:24:13;;;;;;;4.07;2.33;;;22.20;53.50;23.00;101279.00;;;;5075794;28;20189;-42
2022/07/04 07:26:39;;;;;;;4.73;2.80;;;22.20;53.70;23.00;101282.00;;;;5075768;28;20209;-43
2022/07/04 07:29:05;;;;;;;5.03;3.00;;;22.30;54.00;23.00;101275.00;;;;5066896;28;20181;-42
2022/07/04 07:31:31;;;;;;;4.57;3.10;;;22.20;53.80;23.00;101273.00;;;;4923398;28;22816;-42
2022/07/04 07:33:57;;;;;;;3.43;2.60;;;22.20;54.20;23.00;101278.00;;;;5084890;28;20181;-43
2022/07/04 07:36:23;;;;;;;3.57;2.30;;;22.20;54.00;23.00;101272.00;;;;5105958;28;20200;-42
2022/07/04 07:38:49;;;;;;;3.63;2.60;;;22.20;53.90;23.00;101274.00;;;;5086471;28;20177;-43
2022/07/04 07:41:15;;;;;;;2.83;2.20;;;22.20;53.90;23.00;101270.00;;;;5086318;28;20257;-43
2022/07/04 07:43:41;;;;;;;6.43;2.60;;;22.20;53.60;23.00;101266.00;;;;5086753;28;20173;-44
2022/07/04 07:46:07;;;;;;;4.50;2.57;;;22.20;53.60;23.00;101269.00;;;;5086215;28;20619;-43
2022/07/04 07:48:33;;;;;;;2.80;2.10;;;22.20;53.70;23.00;101262.00;;;;5086286;28;20173;-42
2022/07/04 07:50:59;;;;;;;4.77;2.33;;;22.20;53.60;23.00;101260.00;;;;5086141;28;20181;-43
2022/07/04 07:53:25;;;;;;;5.10;2.70;;;22.20;53.60;23.00;101265.00;;;;5085893;28;20184;-43
2022/07/04 07:55:51;;;;;;;2.53;2.20;;;22.20;53.50;22.90;101264.00;;;;5086178;28;20200;-43
2022/07/04 07:58:17;;;;;;;4.40;2.20;;;22.20;53.30;23.00;101272.00;;;;5085645;28;20180;-43
2022/07/04 08:00:42;;;;;;;2.63;2.20;;;22.20;53.40;22.90;101267.00;;;;5086364;28;20193;-43
2022/07/04 08:05:52;;;;;;;3.90;2.20;;;22.10;52.50;22.90;101281.00;;;;5085967;28;20260;-44
2022/07/04 08:08:18;;;;;;;3.23;1.87;;;22.10;52.10;22.90;101274.00;;;;5085626;28;20209;-43
2022/07/04 08:10:44;;;;;;;3.27;1.80;;;22.00;52.20;22.80;101279.00;;;;5085865;28;20599;-44
2022/07/04 08:13:10;;;;;;;3.00;1.90;;;22.00;51.90;22.80;101284.00;;;;5086024;28;20188;-43
2022/07/04 08:15:35;;;;;;;2.57;1.90;;;22.10;52.30;22.80;101273.00;;;;5085990;28;20229;-43
2022/07/04 08:18:01;;;;;;;1.50;1.40;;;22.00;51.50;22.80;101269.00;;;;5086108;28;20640;-43
2022/07/04 08:20:27;;;;;;;2.27;1.67;;;22.00;51.80;22.80;101273.00;;;;5086335;28;20220;-44
2022/07/04 08:22:53;;;;;;;1.90;1.53;;;22.00;51.90;22.80;101278.00;;;;5086289;28;20211;-44
2022/07/04 08:25:19;;;;;;;2.07;1.70;;;22.00;51.90;22.80;101271.00;;;;5085647;28;20855;-43
2022/07/04 08:27:45;;;;;;;1.93;1.60;;;22.00;52.00;22.80;101268.00;;;;5080734;28;20177;-43
2022/07/04 08:30:11;;;;;;;1.97;1.60;;;21.90;51.80;22.80;101276.00;;;;5065445;28;20193;-43
2022/07/04 08:32:37;;;;;;;3.73;2.00;;;21.90;51.70;22.80;101267.00;;;;5019993;28;20178;-43
2022/07/04 08:35:05;;;;;;;2.83;1.80;;;21.90;51.50;22.70;101283.00;;;;5106159;28;20168;-42
2022/07/04 08:37:32;;;;;;;2.07;1.83;;;21.90;51.60;22.70;101275.00;;;;5106043;28;20187;-44
2022/07/04 08:39:58;;;;;;;2.50;1.77;;;21.90;51.70;22.70;101270.00;;;;5086410;28;20557;-43
2022/07/04 08:42:24;;;;;;;3.60;1.93;;;21.90;51.80;22.70;101275.00;;;;5088957;28;20176;-44
2022/07/04 08:44:55;;;;;;;1.80;1.70;;;21.90;51.80;22.70;101276.00;;;;5088770;28;20223;-44
2022/07/04 08:47:22;;;;;;;2.00;1.80;;;21.90;51.80;22.70;101277.00;;;;5087201;28;20205;-44
2022/07/04 08:50:02;;;;;;;2.40;1.70;;;21.90;52.00;22.70;101261.00;;;;5088497;28;20153;-45
2022/07/04 08:52:43;;;;;;;1.70;1.60;;;21.90;51.80;22.70;101266.00;;;;5092576;28;20184;-43
2022/07/04 09:00:41;;;;;;;2.47;1.70;;;21.90;51.80;22.70;101273.00;;;;5092791;28;20166;-43
2022/07/04 09:03:07;;;;;;;2.67;1.80;;;21.90;51.10;22.70;101263.00;;;;5092314;28;20172;-43
2022/07/04 09:05:32;;;;;;;1.70;1.53;;;21.90;51.20;22.70;101273.00;;;;5092575;28;20211;-43
2022/07/04 09:07:58;;;;;;;4.17;1.67;;;21.80;51.20;22.70;101265.00;;;;5092598;28;20515;-43
2022/07/04 09:10:25;;;;;;;3.53;1.70;;;21.90;51.30;22.70;101272.00;;;;5083708;28;20480;-42
2022/07/04 09:12:51;;;;;;;2.03;1.33;;;21.90;51.20;22.70;101275.00;;;;5073692;28;20176;-43
2022/07/04 09:15:17;;;;;;;2.37;1.70;;;22.00;51.20;22.80;101275.00;;;;5071220;28;20567;-43
2022/07/04 09:17:43;;;;;;;3.23;1.60;;;21.90;50.90;22.80;101267.00;;;;5069931;28;20634;-43
2022/07/04 09:20:18;;;;;;;2.50;1.40;;;21.90;50.50;22.80;101263.00;;;;5071456;28;20169;-44
2022/07/04 09:22:45;;;;;;;1.93;1.60;;;21.90;50.60;22.70;101273.00;;;;5071484;28;20168;-43
2022/07/04 09:25:12;;;;;;;3.20;1.73;;;21.90;50.20;22.70;101268.00;;;;5080030;28;20169;-43
2022/07/04 09:27:41;;;;;;;2.03;1.47;;;21.90;49.90;22.70;101263.00;;;;5089763;28;20218;-43
2022/07/04 09:30:08;;;;;;;3.27;1.50;;;21.90;50.00;22.70;101261.00;;;;5090910;28;20177;-44
2022/07/04 09:32:42;;;;;;;2.20;1.60;;;21.80;49.60;22.70;101264.00;;;;4917649;28;20156;-44
2022/07/04 09:35:16;;;;;;;2.93;1.90;;;21.80;49.50;22.70;101268.00;;;;5116564;28;20157;-44
2022/07/04 09:37:48;;;;;;;2.13;1.50;;;21.80;49.70;22.70;101267.00;;;;5111468;28;20187;-43
2022/07/04 09:40:31;;;;;;;1.30;1.20;;;21.80;49.60;22.60;101260.00;;;;5108667;28;20149;-44
2022/07/04 09:43:02;;;;;;;2.43;1.63;;;21.80;49.50;22.60;101261.00;;;;5096217;28;20161;-43
2022/07/04 09:45:28;;;;;;;2.97;1.40;;;21.70;49.40;22.60;101253.00;;;;5091332;28;20220;-43
2022/07/04 09:47:57;;;;;;;1.93;1.47;;;21.80;49.50;22.70;101253.00;;;;5099737;28;20175;-44
2022/07/04 09:50:28;;;;;;;1.40;1.30;;;21.90;49.50;22.70;101250.00;;;;5092747;28;20359;-44
2022/07/04 09:53:00;;;;;;;2.83;1.50;;;22.00;49.60;22.70;101250.00;;;;5091425;28;20158;-43
2022/07/04 09:55:37;;;;;;;1.20;1.10;;;22.00;49.30;22.80;101250.00;;;;5091087;28;20192;-43
2022/07/04 09:58:14;;;;;;;1.20;1.10;;;22.00;49.30;22.80;101246.00;;;;5090229;28;20199;-43
2022/07/04 10:00:44;;;;;;;1.63;1.37;;;22.00;49.40;22.80;101242.00;;;;5103271;28;20167;-43
2022/07/04 10:03:25;;;;;;;2.17;1.47;;;22.10;49.10;22.80;101246.00;;;;5131299;28;20158;-44
2022/07/04 10:06:11;;;;;;;1.67;1.57;;;22.10;49.30;22.90;101253.00;;;;5133006;28;20214;-43
2022/07/04 10:08:41;;;;;;;1.50;1.30;;;22.10;49.10;22.90;101250.00;;;;5115329;28;20236;-42
2022/07/04 10:11:07;;;;;;;1.40;1.30;;;22.10;49.90;22.90;101252.00;;;;5111392;28;20172;-43
2022/07/04 10:13:33;;;;;;;2.20;1.43;;;22.10;49.10;22.90;101255.00;;;;5111124;28;20231;-43
2022/07/04 10:15:59;;;;;;;3.10;1.60;;;22.20;48.80;22.90;101254.00;;;;5126503;27;20195;-43
2022/07/04 10:18:25;;;;;;;3.50;1.57;;;22.10;47.90;22.90;101253.00;;;;5075039;28;20169;-44
2022/07/04 10:20:52;;;;;;;5.50;1.60;;;22.00;48.30;22.90;101238.00;;;;5070312;28;20255;-43
2022/07/04 10:23:21;;;;;;;1.97;1.43;;;22.10;48.60;22.90;101249.00;;;;5070522;28;20242;-43
2022/07/04 10:25:48;;;;;;;3.10;1.70;;;22.10;48.50;22.90;101240.00;;;;5070395;28;20196;-44
2022/07/04 10:28:14;;;;;;;2.97;1.80;;;22.10;48.70;23.00;101232.00;;;;5087515;28;20177;-43
2022/07/04 10:30:40;;;;;;;1.80;1.37;;;22.20;48.80;23.00;101225.00;;;;5082956;28;20180;-43
2022/07/04 10:33:09;;;;;;;2.87;1.70;;;22.20;48.60;23.00;101237.00;;;;4929774;28;20176;-43
2022/07/04 10:36:01;;;;;;;2.87;1.77;;;22.30;49.30;23.10;101224.00;;;;5089570;28;20236;-43
2022/07/04 10:38:34;;;;;;;2.00;1.60;;;22.30;47.70;23.10;101229.00;;;;5089601;28;20172;-42
2022/07/04 10:41:08;;;;;;;2.07;1.60;;;22.20;47.40;23.10;101227.00;;;;5090146;28;20170;-43
2022/07/04 10:43:37;;;;;;;2.50;1.30;;;22.20;46.90;23.10;101231.00;;;;5090474;28;20357;-43
2022/07/04 10:46:06;;;;;;;1.97;1.40;;;22.30;47.10;23.10;101228.00;;;;5089212;28;20485;-43
2022/07/04 10:48:32;;;;;;;2.50;1.60;;;22.20;46.10;23.10;101219.00;;;;5089151;28;20258;-42
2022/07/04 10:51:05;;;;;;;1.80;1.50;;;22.40;46.70;23.10;101216.00;;;;5090044;28;20221;-42
2022/07/04 10:53:31;;;;;;;1.93;1.50;;;22.40;46.30;23.10;101200.00;;;;5090252;28;20164;-43
2022/07/04 10:56:18;;;;;;;2.40;1.43;;;22.50;46.90;23.20;101212.00;;;;5090489;28;20254;-43
2022/07/04 10:58:44;;;;;;;1.63;1.40;;;22.50;47.00;23.20;101207.00;;;;5089324;28;20177;-42
2022/07/04 11:01:14;;;;;;;1.97;1.50;;;22.50;46.70;23.20;101207.00;;;;5080671;28;20181;-42
2022/07/04 11:03:58;;;;;;;3.50;1.57;;;22.60;47.20;23.30;101203.00;;;;5078368;28;20404;-42
2022/07/04 11:06:32;;;;;;;2.63;1.63;;;22.70;47.30;23.30;101209.00;;;;5083869;28;20660;-41